Weather at Pensacola International Airport

Public forecast

Using degrees Fahrenheit for public forecast. Weather courtesy of forecast.io.

Current aviation weather report (METAR) for Pensacola International Airport

2024/06/22 11:53 (retrieved 44 minutes ago)

KPNS 221153Z 34006KT 10SM CLR 24/21 A3008 RMK AO2 SLP186 T02390206 10250 20222 53009

Aviation forecast (TAF) for Pensacola International Airport

2024/06/22 12:33 (retrieved 4 minutes ago)

TAF KPNS 221129Z 2212/2312 35005KT P6SM FEW050 FM221400 05005KT P6SM SCT050 SCT300 FM221800 20009KT P6SM SCT050 SCT300 FM230400 VRB03KT P6SM FEW050